Time;durP1;ratioP1;P1;durP2;ratioP2;P2;SDS_P1;SDS_P2;PMS_P1;PMS_P2;Temp;Humidity;BMP_temperature;BMP_pressure;BME280_temperature;BME280_humidity;BME280_pressure;Samples;Min_cycle;Max_cycle;Signal;HPM_P1;HPM_P2
2022/07/25 00:00:28;;;;;;;0.00;0.00;;;;;;;20.79;68.10;98406.38;4966323;28;20213;-60
2022/07/25 00:02:54;;;;;;;0.00;0.00;;;;;;;20.81;67.66;98408.00;4967268;28;20716;-60
2022/07/25 00:05:21;;;;;;;0.00;0.00;;;;;;;20.75;67.88;98401.69;4967828;28;20235;-60
2022/07/25 00:07:48;;;;;;;0.00;0.00;;;;;;;20.72;68.13;98404.78;4968154;28;20226;-60
2022/07/25 00:10:15;;;;;;;0.00;0.00;;;;;;;20.71;67.99;98398.69;4967417;28;20220;-60
2022/07/25 00:12:42;;;;;;;0.00;0.00;;;;;;;20.68;68.27;98390.34;4967578;28;20654;-60
2022/07/25 00:15:11;;;;;;;0.00;0.00;;;;;;;20.65;68.02;98397.75;4967347;28;20220;-61
2022/07/25 00:17:37;;;;;;;0.00;0.00;;;;;;;20.66;68.18;98398.53;4967405;28;20248;-60
2022/07/25 00:20:05;;;;;;;0.00;0.00;;;;;;;20.67;69.33;98392.22;4967930;28;20213;-60
2022/07/25 00:22:32;;;;;;;0.00;0.00;;;;;;;20.65;69.48;98387.13;4966445;28;20752;-60
2022/07/25 00:24:59;;;;;;;0.00;0.00;;;;;;;20.56;69.42;98380.53;4967667;28;20683;-60
2022/07/25 00:27:26;;;;;;;0.00;0.00;;;;;;;20.53;68.52;98380.97;4967756;28;20642;-60
2022/07/25 00:29:53;;;;;;;0.00;0.00;;;;;;;20.54;69.35;98373.81;4967158;28;20216;-61
2022/07/25 00:32:21;;;;;;;0.00;0.00;;;;;;;20.48;68.46;98376.31;4966641;28;20735;-61
2022/07/25 00:34:48;;;;;;;0.00;0.00;;;;;;;20.41;68.52;98374.78;4967297;28;20696;-61
2022/07/25 00:37:14;;;;;;;0.00;0.00;;;;;;;20.34;68.73;98378.31;4967544;28;20232;-61
2022/07/25 00:39:41;;;;;;;0.00;0.00;;;;;;;20.40;68.87;98370.50;4968005;28;20231;-60
2022/07/25 00:42:08;;;;;;;0.00;0.00;;;;;;;20.35;69.60;98376.44;4966672;28;20220;-61
2022/07/25 00:44:34;;;;;;;0.00;0.00;;;;;;;20.32;69.41;98376.88;4967435;28;20248;-61
2022/07/25 00:47:01;;;;;;;0.00;0.00;;;;;;;20.32;68.90;98372.41;4966786;28;20216;-61
2022/07/25 00:49:29;;;;;;;0.00;0.00;;;;;;;20.34;69.25;98369.53;4966336;28;20252;-61
2022/07/25 00:51:57;;;;;;;0.00;0.00;;;;;;;20.33;69.16;98365.25;4966838;28;20278;-61
2022/07/25 00:54:25;;;;;;;0.00;0.00;;;;;;;20.26;69.02;98362.69;4966966;28;21031;-61
2022/07/25 00:56:52;;;;;;;0.00;0.00;;;;;;;20.21;69.41;98359.91;4966827;28;20219;-61
2022/07/25 00:59:19;;;;;;;0.00;0.00;;;;;;;20.18;69.62;98353.19;4967031;28;20240;-61
2022/07/25 01:01:46;;;;;;;0.00;0.00;;;;;;;20.15;69.56;98360.78;4964744;28;20212;-61
2022/07/25 01:04:14;;;;;;;0.00;0.00;;;;;;;20.16;69.70;98347.28;4966714;28;20241;-61
2022/07/25 01:06:42;;;;;;;0.00;0.00;;;;;;;20.20;69.42;98343.16;4967500;28;20227;-61
2022/07/25 01:09:09;;;;;;;0.00;0.00;;;;;;;20.22;69.97;98348.25;4967170;28;20239;-61
2022/07/25 01:11:36;;;;;;;0.00;0.00;;;;;;;20.24;69.92;98345.38;4966700;28;20232;-61
2022/07/25 01:14:03;;;;;;;0.00;0.00;;;;;;;20.17;69.53;98348.91;4967328;28;20233;-61
2022/07/25 01:16:30;;;;;;;0.00;0.00;;;;;;;20.11;69.47;98341.88;4967142;28;20235;-61
2022/07/25 01:18:57;;;;;;;0.00;0.00;;;;;;;20.17;70.75;98340.97;4967084;28;20396;-61
2022/07/25 01:21:25;;;;;;;0.00;0.00;;;;;;;20.13;70.72;98336.34;4966169;28;20212;-61
2022/07/25 01:23:52;;;;;;;0.00;0.00;;;;;;;20.14;68.55;98336.09;4966794;28;20223;-61
2022/07/25 01:26:19;;;;;;;0.00;0.00;;;;;;;20.16;69.47;98338.53;4966833;28;20242;-61
2022/07/25 01:28:46;;;;;;;0.00;0.00;;;;;;;20.06;69.71;98331.13;4966375;28;20238;-61
2022/07/25 01:31:12;;;;;;;0.00;0.00;;;;;;;20.09;70.43;98322.72;4969288;28;20213;-61
2022/07/25 01:33:39;;;;;;;0.00;0.00;;;;;;;20.06;69.99;98323.16;4971408;28;20233;-61
2022/07/25 01:36:06;;;;;;;0.00;0.00;;;;;;;20.11;71.43;98330.44;4971163;28;20224;-61
2022/07/25 01:38:34;;;;;;;0.00;0.00;;;;;;;19.98;71.13;98316.31;4972301;28;20197;-62
2022/07/25 01:41:01;;;;;;;0.00;0.00;;;;;;;19.92;70.84;98306.59;4972163;28;20670;-61
2022/07/25 01:43:28;;;;;;;0.00;0.00;;;;;;;19.97;70.13;98308.59;4972397;28;20575;-61
2022/07/25 01:45:55;;;;;;;0.00;0.00;;;;;;;19.98;71.14;98310.22;4972669;28;20197;-61
2022/07/25 01:48:22;;;;;;;0.00;0.00;;;;;;;20.09;71.31;98306.00;4971350;28;20189;-62
2022/07/25 01:50:49;;;;;;;0.00;0.00;;;;;;;20.04;70.81;98304.03;4972656;28;20300;-62
2022/07/25 01:53:15;;;;;;;0.00;0.00;;;;;;;20.02;70.88;98304.25;4972350;28;20208;-62
2022/07/25 01:55:44;;;;;;;0.00;0.00;;;;;;;19.99;70.21;98301.22;4975357;28;20191;-62
2022/07/25 01:58:11;;;;;;;0.00;0.00;;;;;;;19.98;71.11;98307.56;4976010;28;20182;-62
2022/07/25 02:00:39;;;;;;;0.00;0.00;;;;;;;19.91;70.00;98299.66;4974695;28;20197;-62
2022/07/25 02:05:50;;;;;;;0.00;0.00;;;;;;;20.01;68.97;98307.91;4973722;28;20191;-63
2022/07/25 02:08:16;;;;;;;0.00;0.00;;;;;;;19.92;69.83;98303.94;4983721;28;20649;-63
2022/07/25 02:10:45;;;;;;;0.00;0.00;;;;;;;19.91;69.84;98302.31;4987000;28;20207;-62
2022/07/25 02:13:11;;;;;;;0.00;0.00;;;;;;;20.00;70.56;98302.84;4984057;28;20219;-62
2022/07/25 02:15:38;;;;;;;0.00;0.00;;;;;;;19.97;69.63;98298.00;4975478;28;20923;-62
2022/07/25 02:18:05;;;;;;;0.00;0.00;;;;;;;20.00;68.86;98293.06;4973832;28;20215;-62
2022/07/25 02:20:32;;;;;;;0.00;0.00;;;;;;;20.08;69.61;98299.09;4979241;28;20204;-62
2022/07/25 02:22:59;;;;;;;0.00;0.00;;;;;;;20.26;67.94;98298.25;4984534;28;20216;-62
2022/07/25 02:25:26;;;;;;;0.00;0.00;;;;;;;20.21;68.24;98291.78;4971870;28;20320;-62
2022/07/25 02:27:54;;;;;;;0.00;0.00;;;;;;;20.12;69.28;98285.19;4975603;28;20196;-62
2022/07/25 02:30:20;;;;;;;0.00;0.00;;;;;;;20.02;69.72;98291.00;4991715;28;20202;-62
2022/07/25 02:33:06;;;;;;;0.00;0.00;;;;;;;19.98;70.01;98292.47;4994799;28;20217;-62
2022/07/25 02:35:33;;;;;;;7.83;6.23;;;;;;;19.86;70.34;98291.53;4993320;28;20611;-62
2022/07/25 02:37:59;;;;;;;11.73;8.43;;;;;;;19.83;70.87;98298.09;4994600;28;20203;-62
2022/07/25 02:40:27;;;;;;;10.40;9.30;;;;;;;19.74;70.92;98288.81;4994555;28;20198;-62
2022/07/25 02:42:55;;;;;;;10.30;9.30;;;;;;;19.74;70.65;98286.16;4994195;28;20222;-62
2022/07/25 02:45:22;;;;;;;10.77;9.40;;;;;;;19.76;70.27;98287.56;4994811;28;20200;-62
2022/07/25 02:47:49;;;;;;;9.47;8.47;;;;;;;19.79;71.56;98282.84;4994431;28;20210;-62
2022/07/25 02:50:16;;;;;;;9.50;8.50;;;;;;;19.70;71.29;98287.63;4994302;28;20202;-62
2022/07/25 02:52:43;;;;;;;13.47;9.30;;;;;;;19.67;72.07;98290.72;4970063;28;20280;-62
2022/07/25 02:55:10;;;;;;;11.67;9.23;;;;;;;19.64;71.83;98285.84;4979481;28;20305;-60
2022/07/25 02:57:37;;;;;;;9.70;8.70;;;;;;;19.71;71.62;98295.34;4975006;28;20194;-61
2022/07/25 03:00:07;;;;;;;10.37;9.27;;;;;;;19.60;71.45;98285.50;4975039;28;20275;-61
2022/07/25 03:02:34;;;;;;;10.20;9.10;;;;;;;19.59;71.46;98282.03;4974624;28;20707;-61
2022/07/25 03:05:01;;;;;;;10.17;9.17;;;;;;;19.61;72.06;98287.91;4974746;28;20664;-61
2022/07/25 03:07:28;;;;;;;11.40;9.80;;;;;;;19.48;73.00;98285.38;4974779;28;20198;-61
2022/07/25 03:09:55;;;;;;;10.63;9.53;;;;;;;19.40;73.45;98289.13;4975201;28;20648;-61
2022/07/25 03:12:22;;;;;;;11.83;10.20;;;;;;;19.31;74.24;98291.22;4974741;28;20218;-61
2022/07/25 03:14:49;;;;;;;11.13;9.30;;;;;;;19.20;74.55;98291.13;4975099;28;20194;-61
2022/07/25 03:17:17;;;;;;;11.67;9.33;;;;;;;19.09;74.60;98287.31;4973731;28;20201;-61
2022/07/25 03:19:44;;;;;;;11.30;9.23;;;;;;;18.97;75.31;98285.38;4974932;28;20626;-61
2022/07/25 03:22:11;;;;;;;11.53;10.33;;;;;;;18.93;75.94;98275.41;4974689;28;20215;-61
2022/07/25 03:24:37;;;;;;;13.70;10.20;;;;;;;18.87;76.18;98282.34;4974906;28;20200;-61
2022/07/25 03:27:04;;;;;;;11.50;9.87;;;;;;;18.85;76.67;98271.19;4974825;28;20191;-61
2022/07/25 03:29:31;;;;;;;10.73;9.63;;;;;;;18.75;76.78;98263.69;4975218;28;20196;-61
2022/07/25 03:31:59;;;;;;;13.67;9.03;;;;;;;18.69;76.46;98268.03;4974378;28;20243;-61
2022/07/25 03:34:27;;;;;;;11.83;9.97;;;;;;;18.66;76.66;98271.09;4974732;28;20706;-61
2022/07/25 03:36:54;;;;;;;15.00;10.13;;;;;;;18.67;76.54;98267.41;4974813;28;20192;-61
2022/07/25 03:39:21;;;;;;;12.10;9.90;;;;;;;18.61;76.82;98272.72;4974614;28;20198;-61
2022/07/25 03:41:51;;;;;;;12.57;10.00;;;;;;;18.68;76.36;98274.34;4974254;28;20651;-61
2022/07/25 03:44:18;;;;;;;12.43;9.23;;;;;;;18.66;76.37;98276.38;4973102;28;20203;-61
2022/07/25 03:46:45;;;;;;;12.13;9.70;;;;;;;18.62;76.84;98272.53;4974478;28;20196;-61
2022/07/25 03:49:12;;;;;;;12.27;9.63;;;;;;;18.61;77.02;98272.72;4974439;28;20191;-61
2022/07/25 03:51:40;;;;;;;14.63;10.20;;;;;;;18.63;77.34;98270.69;4973996;28;20266;-61
2022/07/25 03:54:07;;;;;;;13.33;9.37;;;;;;;18.62;77.07;98266.41;4974396;28;20183;-61
2022/07/25 03:56:38;;;;;;;11.30;9.37;;;;;;;18.67;77.09;98270.06;4974241;28;20207;-61
2022/07/25 03:59:06;;;;;;;10.60;9.50;;;;;;;18.72;77.46;98266.78;4972727;28;20233;-62
2022/07/25 04:01:33;;;;;;;13.13;9.83;;;;;;;18.68;77.84;98263.75;4973962;28;20208;-62
2022/07/25 04:04:01;;;;;;;16.53;9.77;;;;;;;18.63;77.52;98258.28;4973973;28;20214;-62
2022/07/25 04:06:28;;;;;;;12.53;9.77;;;;;;;18.63;77.14;98268.88;4972716;28;20194;-62
2022/07/25 04:08:57;;;;;;;12.77;9.67;;;;;;;18.64;77.46;98270.50;4972678;28;20209;-62
2022/07/25 04:11:24;;;;;;;12.43;9.87;;;;;;;18.63;77.30;98268.88;4986896;28;20628;-62
2022/07/25 04:13:51;;;;;;;12.17;10.20;;;;;;;18.65;77.32;98264.19;4993161;28;20211;-62
2022/07/25 04:16:19;;;;;;;11.83;8.80;;;;;;;18.65;77.13;98274.75;4993296;28;20184;-62
2022/07/25 04:18:45;;;;;;;15.20;10.33;;;;;;;18.74;76.94;98275.31;4992983;28;20202;-62
2022/07/25 04:21:12;;;;;;;13.17;10.20;;;;;;;18.76;77.12;98275.91;4992003;28;20199;-62
2022/07/25 04:23:39;;;;;;;11.57;9.27;;;;;;;18.85;76.37;98265.91;4992960;28;20201;-62
2022/07/25 04:26:07;;;;;;;13.63;9.63;;;;;;;18.83;76.38;98271.38;4983734;28;20556;-62
2022/07/25 04:28:34;;;;;;;13.10;10.40;;;;;;;18.85;76.38;98271.97;4988482;28;20197;-62
2022/07/25 04:31:01;;;;;;;17.07;10.87;;;;;;;18.85;77.60;98273.81;4992953;28;20203;-62
2022/07/25 04:33:29;;;;;;;15.93;10.67;;;;;;;18.87;77.55;98274.44;4992679;28;20222;-62
2022/07/25 04:35:56;;;;;;;12.83;9.97;;;;;;;18.88;77.21;98270.75;4992878;28;20237;-62
2022/07/25 04:38:23;;;;;;;10.77;9.67;;;;;;;18.91;77.23;98272.16;4992843;28;20205;-62
2022/07/25 04:40:50;;;;;;;11.20;9.80;;;;;;;18.93;77.11;98265.63;4988638;28;20693;-62
2022/07/25 04:43:19;;;;;;;10.00;9.00;;;;;;;18.95;77.09;98260.94;4989143;28;20688;-62
2022/07/25 04:45:46;;;;;;;10.97;9.87;;;;;;;18.98;77.41;98257.09;4992934;28;20211;-62
2022/07/25 04:48:13;;;;;;;13.20;9.80;;;;;;;19.08;77.27;98253.97;4993033;28;20190;-62
2022/07/25 04:50:40;;;;;;;12.53;10.20;;;;;;;19.10;77.43;98246.59;4992942;28;20245;-62
2022/07/25 04:53:07;;;;;;;11.40;9.97;;;;;;;19.12;77.55;98249.84;4990971;28;20213;-62
2022/07/25 04:55:35;;;;;;;10.77;9.67;;;;;;;19.13;77.11;98252.28;4992678;28;20208;-62
2022/07/25 04:58:02;;;;;;;14.03;9.93;;;;;;;19.19;77.11;98247.97;4986906;28;20201;-62
2022/07/25 05:00:30;;;;;;;11.50;9.87;;;;;;;19.18;77.36;98239.22;4973358;28;20188;-62
2022/07/25 05:02:57;;;;;;;11.80;10.33;;;;;;;19.26;77.35;98243.41;4973220;28;20212;-62
2022/07/25 05:05:24;;;;;;;14.37;10.30;;;;;;;19.30;77.01;98235.88;4973488;28;20203;-62
2022/07/25 05:07:56;;;;;;;10.67;9.57;;;;;;;19.30;77.08;98239.31;4973635;28;20192;-62
2022/07/25 05:10:23;;;;;;;10.93;9.33;;;;;;;19.30;76.83;98241.97;4973231;28;20192;-62
2022/07/25 05:12:50;;;;;;;14.00;9.50;;;;;;;19.40;76.67;98227.44;4972939;28;20214;-62
2022/07/25 05:15:17;;;;;;;10.87;9.73;;;;;;;19.41;77.57;98237.81;4973503;28;20581;-62
2022/07/25 05:17:45;;;;;;;10.77;9.70;;;;;;;19.42;77.19;98228.84;4973559;28;20199;-62
2022/07/25 05:20:13;;;;;;;13.03;9.40;;;;;;;19.46;76.87;98229.19;4973290;28;20194;-62
2022/07/25 05:22:40;;;;;;;14.03;10.80;;;;;;;19.50;75.99;98233.03;4973069;28;20616;-62
2022/07/25 05:25:08;;;;;;;11.23;9.67;;;;;;;19.56;76.27;98231.38;4973560;28;20202;-62
2022/07/25 05:27:37;;;;;;;10.57;9.47;;;;;;;19.59;76.24;98231.72;4973317;28;20182;-62
2022/07/25 05:30:05;;;;;;;11.90;10.27;;;;;;;19.65;75.81;98232.66;4975184;28;20183;-62
2022/07/25 05:32:31;;;;;;;10.80;9.70;;;;;;;19.72;76.18;98243.22;4976784;28;20223;-62
2022/07/25 05:35:00;;;;;;;12.10;9.80;;;;;;;19.75;76.07;98230.31;4976883;28;20192;-62
2022/07/25 05:37:27;;;;;;;12.47;9.90;;;;;;;19.81;75.60;98233.13;4976952;28;20195;-62
2022/07/25 05:39:53;;;;;;;14.93;9.77;;;;;;;19.88;74.82;98234.69;4976964;28;20197;-62
2022/07/25 05:42:20;;;;;;;11.53;9.80;;;;;;;19.98;73.07;98236.84;4976521;28;20213;-62
2022/07/25 05:44:47;;;;;;;10.97;9.63;;;;;;;20.02;73.68;98240.66;4975388;28;20194;-62
2022/07/25 05:47:14;;;;;;;11.87;9.63;;;;;;;20.12;73.71;98242.81;4976698;28;20206;-62
2022/07/25 05:49:41;;;;;;;10.67;9.13;;;;;;;20.12;74.62;98242.81;4976635;28;20250;-62
2022/07/25 05:52:28;;;;;;;11.00;9.87;;;;;;;20.19;73.14;98237.41;4976489;28;20359;-62
2022/07/25 05:54:55;;;;;;;13.23;10.43;;;;;;;20.25;73.15;98238.34;4976632;28;20193;-62
2022/07/25 05:57:22;;;;;;;14.80;10.23;;;;;;;20.32;72.87;98241.72;4976685;28;20254;-62
2022/07/25 05:59:48;;;;;;;11.90;9.73;;;;;;;20.44;72.46;98242.59;4976409;28;20279;-62
2022/07/25 06:02:15;;;;;;;10.47;9.47;;;;;;;20.56;71.64;98239.16;4976116;28;20211;-62
2022/07/25 06:04:42;;;;;;;12.23;9.97;;;;;;;20.73;70.42;98236.66;4976413;28;20203;-62
2022/07/25 06:07:08;;;;;;;10.33;9.33;;;;;;;20.87;70.34;98234.69;4976406;28;20184;-62
2022/07/25 06:09:37;;;;;;;10.97;9.37;;;;;;;21.08;68.88;98238.63;4976408;28;20195;-62
2022/07/25 06:12:05;;;;;;;10.63;9.40;;;;;;;21.21;69.00;98232.28;4994377;28;20219;-62
2022/07/25 06:14:32;;;;;;;10.00;9.00;;;;;;;21.41;67.51;98226.66;4995755;28;20726;-62
2022/07/25 06:16:58;;;;;;;11.77;9.30;;;;;;;21.59;67.77;98227.56;4995651;28;20609;-62
2022/07/25 06:19:25;;;;;;;9.60;8.60;;;;;;;21.80;66.54;98232.28;4995608;28;20680;-62
2022/07/25 06:21:52;;;;;;;9.10;8.20;;;;;;;22.00;65.10;98231.09;4995234;28;20215;-62
2022/07/25 06:24:18;;;;;;;11.03;9.07;;;;;;;22.20;65.09;98225.38;4995641;28;20196;-62
2022/07/25 06:26:47;;;;;;;10.00;9.00;;;;;;;22.40;63.47;98235.56;4995661;28;20824;-62
2022/07/25 06:29:13;;;;;;;9.97;8.93;;;;;;;22.61;63.31;98232.50;4995578;28;20693;-62
2022/07/25 06:31:40;;;;;;;10.70;8.87;;;;;;;22.78;62.71;98237.88;4995172;28;20246;-62
2022/07/25 06:34:07;;;;;;;10.60;8.53;;;;;;;22.99;62.60;98234.47;4995520;28;20259;-62
2022/07/25 06:36:34;;;;;;;9.07;8.17;;;;;;;23.14;62.11;98233.09;4993943;28;20203;-62
2022/07/25 06:39:01;;;;;;;9.40;8.40;;;;;;;23.24;61.93;98235.94;4995425;28;20206;-62
2022/07/25 06:41:28;;;;;;;12.70;8.77;;;;;;;23.40;59.90;98241.50;4994728;28;20631;-62
2022/07/25 06:43:56;;;;;;;9.53;8.63;;;;;;;23.61;60.01;98239.13;4995112;28;20538;-62
2022/07/25 06:46:22;;;;;;;11.40;9.17;;;;;;;23.74;59.12;98233.44;4995246;28;20192;-62
2022/07/25 06:48:49;;;;;;;10.53;9.43;;;;;;;23.86;57.53;98231.44;4995365;28;20668;-62
2022/07/25 06:51:16;;;;;;;11.77;9.70;;;;;;;24.01;57.43;98228.22;4995095;28;20554;-62
2022/07/25 06:53:43;;;;;;;13.97;10.07;;;;;;;24.16;57.86;98237.44;4994625;28;20224;-62
2022/07/25 06:56:10;;;;;;;12.27;9.93;;;;;;;24.23;57.43;98245.25;4994921;28;20192;-62
2022/07/25 06:58:37;;;;;;;10.87;9.77;;;;;;;24.39;56.91;98246.19;4994892;28;20186;-62
2022/07/25 07:01:05;;;;;;;12.60;9.80;;;;;;;24.53;57.02;98243.97;4988983;28;20239;-62
2022/07/25 07:03:36;;;;;;;12.00;9.60;;;;;;;24.58;57.59;98236.78;4979744;28;20555;-62
2022/07/25 07:06:04;;;;;;;12.30;9.70;;;;;;;24.68;56.79;98240.63;4986972;28;20237;-62
2022/07/25 07:08:31;;;;;;;13.77;10.73;;;;;;;24.72;55.79;98231.91;4978452;28;20204;-62
2022/07/25 07:10:57;;;;;;;11.57;9.53;;;;;;;24.86;55.88;98234.94;4981174;28;20191;-62
2022/07/25 07:13:24;;;;;;;10.87;9.77;;;;;;;24.98;55.86;98233.97;4983685;28;20705;-62
2022/07/25 07:15:51;;;;;;;10.67;9.57;;;;;;;25.06;55.28;98242.31;4990052;28;20194;-62
2022/07/25 07:18:20;;;;;;;11.90;10.03;;;;;;;25.21;55.49;98240.81;4990979;28;20193;-62
2022/07/25 07:20:47;;;;;;;13.50;9.53;;;;;;;25.33;55.81;98235.28;4978915;28;20206;-62
2022/07/25 07:23:13;;;;;;;11.13;9.70;;;;;;;25.44;54.56;98231.63;4978448;28;20211;-62
2022/07/25 07:25:40;;;;;;;12.33;9.97;;;;;;;25.45;53.72;98233.25;4982909;28;20186;-62
2022/07/25 07:28:07;;;;;;;10.90;9.80;;;;;;;25.55;54.57;98234.38;4982897;28;20275;-62
2022/07/25 07:30:35;;;;;;;10.60;9.53;;;;;;;25.73;54.72;98231.25;4982933;28;20257;-62
2022/07/25 07:33:01;;;;;;;10.67;9.57;;;;;;;25.88;54.56;98233.22;4980160;28;20212;-62
2022/07/25 07:35:30;;;;;;;12.70;10.07;;;;;;;26.01;53.78;98228.41;4985755;28;20202;-62
2022/07/25 07:37:56;;;;;;;11.33;10.13;;;;;;;26.08;52.89;98228.97;4988648;28;20550;-62
2022/07/25 07:40:25;;;;;;;11.70;10.27;;;;;;;26.17;52.57;98222.09;4982486;28;20210;-62
2022/07/25 07:42:53;;;;;;;12.87;10.43;;;;;;;26.28;52.38;98236.31;4982180;28;20778;-62
2022/07/25 07:45:21;;;;;;;12.67;10.97;;;;;;;26.24;51.33;98227.19;4982777;28;20202;-62
2022/07/25 07:47:50;;;;;;;12.40;10.33;;;;;;;26.33;51.83;98241.66;4978278;28;20195;-62
2022/07/25 07:50:19;;;;;;;11.03;9.33;;;;;;;26.49;52.49;98244.38;4977818;28;20556;-62
2022/07/25 07:52:48;;;;;;;11.47;10.30;;;;;;;26.54;50.94;98241.69;4965727;28;20218;-62
2022/07/25 07:58:00;;;;;;;12.23;9.83;;;;;;;26.77;50.81;98240.41;4976595;28;20192;-62
2022/07/25 08:00:29;;;;;;;12.03;9.87;;;;;;;26.87;51.26;98244.19;4982194;28;20269;-62
2022/07/25 08:02:57;;;;;;;10.40;9.40;;;;;;;26.92;51.18;98241.50;4978872;28;20282;-62
2022/07/25 08:05:25;;;;;;;11.17;10.03;;;;;;;27.01;51.20;98239.91;4985372;28;20225;-62
2022/07/25 08:07:54;;;;;;;10.93;9.37;;;;;;;27.15;49.42;98244.69;4980775;28;20560;-62
2022/07/25 08:10:23;;;;;;;10.50;9.30;;;;;;;27.37;49.38;98247.88;4981989;28;20199;-62
2022/07/25 08:12:50;;;;;;;14.53;10.20;;;;;;;27.43;49.51;98240.66;4975926;28;20212;-62
2022/07/25 08:15:19;;;;;;;9.80;8.83;;;;;;;27.57;49.55;98245.44;4968933;28;20197;-62
2022/07/25 08:17:47;;;;;;;11.30;9.57;;;;;;;27.65;48.56;98240.34;4978050;28;20195;-62
2022/07/25 08:20:14;;;;;;;11.63;9.23;;;;;;;27.81;48.22;98246.44;4985423;28;20191;-62
2022/07/25 08:22:43;;;;;;;10.73;9.52;;;;;;;27.85;46.67;98241.34;4981169;28;20249;-62
2022/07/25 08:25:15;;;;;;;9.90;8.90;;;;;;;27.97;47.76;98249.06;4980134;28;20205;-62
2022/07/25 08:27:41;;;;;;;10.88;9.25;;;;;;;28.08;47.03;98245.28;4972983;28;20779;-62
2022/07/25 08:30:09;;;;;;;15.25;9.40;;;;;;;28.05;46.06;98253.88;4972038;28;20212;-62
2022/07/25 08:32:57;;;;;;;10.43;9.40;;;;;;;28.18;47.00;98244.44;4971633;28;20238;-63
2022/07/25 08:35:25;;;;;;;13.32;9.75;;;;;;;28.26;46.12;98245.75;4946253;28;20567;-63
2022/07/25 08:37:52;;;;;;;10.23;9.10;;;;;;;28.34;46.71;98250.53;4971629;28;20191;-62
2022/07/25 08:40:22;;;;;;;11.27;9.60;;;;;;;28.41;45.92;98253.72;4973024;28;20187;-63
2022/07/25 08:42:49;;;;;;;10.98;9.82;;;;;;;28.44;45.11;98246.97;4971174;28;20581;-63
2022/07/25 08:45:18;;;;;;;11.05;10.00;;;;;;;28.61;45.82;98248.50;4973345;28;20188;-63
2022/07/25 08:47:46;;;;;;;15.20;9.70;;;;;;;28.66;44.96;98238.50;4973078;28;20199;-63
2022/07/25 08:50:15;;;;;;;12.80;9.27;;;;;;;28.82;44.59;98238.41;4973209;28;20227;-63
2022/07/25 08:52:43;;;;;;;11.63;9.90;;;;;;;28.92;43.92;98242.91;4972831;28;20215;-63
2022/07/25 08:55:13;;;;;;;11.48;9.77;;;;;;;29.02;43.71;98242.84;4973122;28;20189;-63
2022/07/25 08:57:42;;;;;;;9.48;8.57;;;;;;;29.20;43.00;98243.19;4973410;28;20266;-63
2022/07/25 09:00:12;;;;;;;14.23;10.02;;;;;;;29.29;42.32;98255.75;4971998;28;20213;-63
2022/07/25 09:02:59;;;;;;;10.23;9.23;;;;;;;29.45;41.60;98255.63;4973100;28;20349;-63
2022/07/25 09:05:27;;;;;;;12.60;9.23;;;;;;;29.43;41.74;98241.69;4975308;28;20201;-63
2022/07/25 09:07:55;;;;;;;11.43;9.30;;;;;;;29.54;41.66;98245.88;4977205;28;20193;-66
2022/07/25 09:10:25;;;;;;;10.73;9.02;;;;;;;29.58;41.58;98243.38;4981930;28;20254;-63
2022/07/25 09:13:13;;;;;;;9.43;8.60;;;;;;;29.73;39.91;98240.53;4964017;28;20271;-62
2022/07/25 09:15:44;;;;;;;9.65;8.75;;;;;;;29.89;39.08;98237.66;4968459;28;20243;-62
2022/07/25 09:18:13;;;;;;;10.02;8.57;;;;;;;30.01;39.32;98234.56;4970300;28;20235;-62
2022/07/25 09:20:43;;;;;;;10.65;9.18;;;;;;;30.09;37.93;98238.53;4969881;28;20307;-62
2022/07/25 09:23:11;;;;;;;9.70;8.80;;;;;;;30.14;39.06;98236.56;4969456;28;20225;-62
2022/07/25 09:25:38;;;;;;;10.43;9.23;;;;;;;30.13;38.12;98226.88;4970583;28;20288;-62
2022/07/25 09:28:14;;;;;;;9.90;8.32;;;;;;;30.29;38.08;98232.06;4970124;28;20217;-62
2022/07/25 09:30:53;;;;;;;9.40;8.50;;;;;;;30.33;38.22;98233.84;4970372;28;20249;-62
2022/07/25 09:33:20;;;;;;;9.70;8.77;;;;;;;30.28;38.96;98225.84;4970597;28;20210;-62
2022/07/25 09:35:47;;;;;;;11.50;9.13;;;;;;;30.37;37.61;98217.94;4969500;28;20234;-63
2022/07/25 09:38:15;;;;;;;9.13;8.23;;;;;;;30.57;35.63;98224.91;4968866;28;20233;-62
2022/07/25 09:40:52;;;;;;;8.80;7.90;;;;;;;30.67;34.95;98215.09;4969335;28;20218;-63
2022/07/25 09:43:21;;;;;;;8.65;7.85;;;;;;;30.74;35.04;98220.91;4969955;28;20224;-63
2022/07/25 09:45:49;;;;;;;10.88;7.22;;;;;;;30.89;34.22;98217.97;4969110;28;20260;-62
2022/07/25 09:48:18;;;;;;;8.10;7.40;;;;;;;31.03;33.75;98214.50;4970364;28;20229;-62
2022/07/25 09:50:45;;;;;;;9.07;7.10;;;;;;;31.02;32.72;98210.19;4969300;28;20213;-62
2022/07/25 09:53:12;;;;;;;8.00;7.22;;;;;;;30.84;33.56;98215.34;4968123;28;20214;-62
2022/07/25 09:56:04;;;;;;;9.95;7.13;;;;;;;31.15;33.14;98208.63;4969371;28;20229;-62
2022/07/25 09:58:33;;;;;;;8.75;7.35;;;;;;;31.42;32.77;98212.47;4966466;28;20296;-62
2022/07/25 10:01:04;;;;;;;8.02;7.22;;;;;;;31.71;32.51;98212.16;4968768;28;20233;-63
2022/07/25 10:03:45;;;;;;;8.10;7.30;;;;;;;31.86;33.23;98212.97;4968482;28;20900;-63
2022/07/25 10:06:20;;;;;;;8.45;7.75;;;;;;;31.91;32.89;98216.34;4970116;28;20263;-63
2022/07/25 10:08:48;;;;;;;8.75;7.60;;;;;;;31.94;32.25;98223.06;4965936;28;20233;-63
2022/07/25 10:11:19;;;;;;;8.00;7.28;;;;;;;31.97;31.57;98218.94;4969649;28;20237;-63
2022/07/25 10:13:48;;;;;;;7.75;7.05;;;;;;;31.91;32.43;98219.06;4968094;28;20213;-63
2022/07/25 10:16:16;;;;;;;8.48;7.35;;;;;;;31.82;32.90;98212.75;4965398;28;20234;-63
2022/07/25 10:18:49;;;;;;;8.10;7.05;;;;;;;32.13;33.23;98214.03;4968552;28;20229;-63
2022/07/25 10:21:17;;;;;;;10.40;7.10;;;;;;;32.42;31.48;98210.97;4968705;28;20733;-63
2022/07/25 10:23:45;;;;;;;8.35;7.43;;;;;;;32.33;32.89;98204.69;4968653;28;20217;-63
2022/07/25 10:26:14;;;;;;;7.90;7.20;;;;;;;32.22;33.04;98213.00;4966039;28;20280;-63
2022/07/25 10:28:44;;;;;;;7.60;6.90;;;;;;;32.44;33.16;98216.84;4968776;28;20217;-63
2022/07/25 10:31:20;;;;;;;9.40;7.18;;;;;;;32.72;30.39;98214.03;4966411;28;20221;-63
2022/07/25 10:33:58;;;;;;;7.88;7.10;;;;;;;32.72;30.59;98205.94;4968690;28;20355;-63
2022/07/25 10:36:28;;;;;;;9.75;7.25;;;;;;;32.53;31.40;98195.28;4968550;28;20304;-63
2022/07/25 10:39:00;;;;;;;7.75;7.05;;;;;;;32.78;31.56;98199.28;4967973;28;20217;-63
2022/07/25 10:41:28;;;;;;;8.35;7.43;;;;;;;33.01;31.04;98198.50;4966943;28;20245;-63
2022/07/25 10:43:59;;;;;;;8.57;7.78;;;;;;;33.28;30.29;98197.50;4968701;28;20221;-63
2022/07/25 10:46:29;;;;;;;8.52;7.38;;;;;;;33.12;31.08;98194.41;4969240;28;20246;-63
2022/07/25 10:49:01;;;;;;;8.55;7.22;;;;;;;33.31;31.02;98207.69;4968924;28;20248;-62
2022/07/25 10:51:31;;;;;;;7.78;7.03;;;;;;;33.02;31.11;98208.97;4967758;28;20260;-62
2022/07/25 10:53:57;;;;;;;8.02;7.22;;;;;;;33.09;30.76;98197.72;4970000;28;20255;-63
2022/07/25 10:56:27;;;;;;;8.25;7.53;;;;;;;33.39;31.71;98198.06;4970668;28;20238;-63
2022/07/25 10:58:56;;;;;;;8.00;7.30;;;;;;;33.46;29.31;98189.47;4969341;28;20228;-63
2022/07/25 11:01:24;;;;;;;8.43;7.38;;;;;;;33.48;30.76;98195.38;4968482;28;20296;-63
2022/07/25 11:03:55;;;;;;;10.27;7.47;;;;;;;33.20;30.46;98192.84;4968388;28;20293;-63
2022/07/25 11:06:32;;;;;;;8.10;7.30;;;;;;;33.82;29.20;98200.06;4967862;28;20230;-63
2022/07/25 11:09:00;;;;;;;8.25;7.50;;;;;;;33.46;30.05;98197.59;4966665;28;20214;-63
2022/07/25 11:11:39;;;;;;;9.82;7.82;;;;;;;33.60;30.65;98200.97;4964145;28;20322;-63
2022/07/25 11:14:14;;;;;;;11.38;7.72;;;;;;;33.68;29.86;98208.31;4967248;28;20575;-63
2022/07/25 11:16:41;;;;;;;7.70;7.00;;;;;;;33.87;30.29;98201.81;4965606;28;20599;-63
2022/07/25 11:19:20;;;;;;;8.70;7.75;;;;;;;33.77;29.93;98202.13;4967345;28;20313;-63
2022/07/25 11:21:48;;;;;;;8.35;6.80;;;;;;;34.25;30.08;98198.53;4966108;28;20221;-63
2022/07/25 11:24:15;;;;;;;8.15;7.40;;;;;;;34.29;29.37;98198.69;4967407;28;20222;-63
2022/07/25 11:26:46;;;;;;;8.20;7.30;;;;;;;34.43;30.51;98193.09;4966982;28;20226;-64
2022/07/25 11:29:19;;;;;;;9.50;7.32;;;;;;;33.90;30.57;98200.38;4966924;28;20415;-63
2022/07/25 11:31:52;;;;;;;8.27;7.50;;;;;;;33.27;30.39;98202.13;4967011;28;21859;-63
2022/07/25 11:34:23;;;;;;;8.40;7.55;;;;;;;32.98;31.09;98191.78;4966284;28;20231;-63
2022/07/25 11:36:51;;;;;;;10.90;7.93;;;;;;;33.32;30.58;98203.88;4966532;28;20824;-63